Campo Grande Airport

SBCG · Mato Grosso do Sul, Brésil

METAR anciennes SBCG · Aéroport international de Campo Grande

Tu vois ci-dessous les METAR des derniers jours. Sélectionne une année pour parcourir les METAR plus anciens, à partir de l'année 2007.

18 avril 2024

Temps Code Temps Temp. Vue Base cloud Vent METAR/SPECI
05:00
V
16 °C 10 km+ - 120° 120° 10 kt METAR SBCG 180900Z 12010KT CAVOK 16/13 Q1017
04:00
V
16 °C 10 km+ - 130° 130° 10 kt METAR SBCG 180800Z 13010KT CAVOK 16/13 Q1017
03:00
V
17 °C 10 km+ - 130° 130° 9 kt METAR SBCG 180700Z 13009KT CAVOK 17/13 Q1016
02:00
V
17 °C 10 km+ - 130° 130° 10 kt METAR SBCG 180600Z 13010KT CAVOK 17/13 Q1016
01:00
V
18 °C 10 km+ - 140° 140° 12 kt METAR SBCG 180500Z 14012KT CAVOK 18/14 Q1017
00:00
V
19 °C 10 km+ - 140° 140° 10 kt METAR SBCG 180400Z 14010KT CAVOK 19/16 Q1017

17 avril 2024

Temps Code Temps Temp. Vue Base cloud Vent METAR/SPECI
23:00
V
20 °C 10 km+ - 130° 130° 10 kt METAR SBCG 180300Z 13010KT CAVOK 20/17 Q1017
22:00
V
20 °C 10 km+ - 120° 120° 8 kt METAR SBCG 180200Z 12008KT CAVOK 20/17 Q1018
21:00
V
20 °C 10 km+ - 120° 120° 7 kt METAR SBCG 180100Z 12007KT CAVOK 20/18 Q1018
20:00
V
21 °C 10 km+ - 120° 120° 6 kt METAR SBCG 180000Z 12006KT CAVOK 21/18 Q1018
19:00
V
22 °C 10 km+ - 130° 130° 6 kt METAR SBCG 172300Z 13006KT CAVOK 22/19 Q1017
18:00
V
22 °C 10 km+ - 140° 140° 6 kt METAR SBCG 172200Z 14006KT 9999 FEW015 SCT100 22/20 Q1016
17:00
V
23 °C 10 km+ 10.000 ft 150° 150° 8 kt METAR SBCG 172100Z 15008KT 9999 FEW015 BKN100 23/20 Q1016
16:00
M
24 °C 10 km+ 1.500 ft 160° 160° 9 kt METAR SBCG 172000Z 16009KT 9999 BKN015 SCT100 24/21 Q1015
15:00
V
24 °C 10 km+ 10.000 ft 160° 160° 8 kt METAR SBCG 171900Z 16008KT 120V190 9999 SCT014 BKN100 24/21 Q1016
14:00
M
24 °C 10 km+ 1.400 ft 150° 150° 8 kt METAR SBCG 171800Z 15008KT 9999 BKN014 BKN100 24/21 Q1016
13:00
M
24 °C 10 km+ 1.000 ft 150° 150° 7 kt METAR SBCG 171700Z 15007KT 100V180 9999 BKN010 BKN100 24/21 Q1017
12:00
I
22 °C 10 km+ 600 ft 160° 160° 9 kt METAR SBCG 171600Z 16009KT 130V190 9999 4000N -DZ OVC006 22/21 Q1018
11:18
L
22 °C 4,5 km 400 ft 160° 160° 10 kt METAR SBCG 171518Z 16010KT 4500 -DZ OVC004 22/22 Q1018
11:00
L
22 °C 1,4 km 400 ft 170° 170° 10 kt METAR SBCG 171500Z 17010KT 1400 -DZ OVC004 22/22 Q1019
10:00
I
24 °C 10 km+ 900 ft 150° 150° 9 kt METAR SBCG 171400Z 15009KT 9999 OVC009 24/21 Q1019
09:00
I
23 °C 10 km+ 900 ft 140° 140° 9 kt METAR SBCG 171300Z 14009KT 9999 BKN009 BKN060 23/21 Q1019
08:28
I
22 °C 10 km+ 700 ft 140° 140° 9 kt METAR SBCG 171228Z 14009KT 9999 BKN007 SCT011 BKN060 22/21 Q1019
08:00
L
22 °C 10 km+ 400 ft 130° 130° 6 kt METAR SBCG 171200Z 13006KT 9999 BKN004 SCT011 BKN060 22/22 Q1018
07:00
L
21 °C 7 km 200 ft 160° 160° 8 kt METAR SBCG 171100Z 16008KT 7000 OVC002 21/21 Q1018
06:32
L
21 °C 7 km 200 ft 160° 160° 9 kt METAR SBCG 171032Z 16009KT 130V190 7000 BKN002 BKN004 21/21 Q1018
06:00
L
21 °C 500 m 200 ft 160° 160° 9 kt METAR SBCG 171000Z 16009KT 0500 R24/1800D R06/1800D FG OVC002 21/21 Q1017
05:20
L
21 °C 6 km 200 ft 170° 170° 10 kt METAR SBCG 170920Z 17010KT 6000 BKN002 BKN004 BKN006 21/21 Q1017
05:10
L
22 °C 500 m 200 ft 170° 170° 9 kt METAR SBCG 170910Z 17009KT 0500 R06/1900D R24/P2000 FG BKN002 BKN004 BKN006 22/22 Q1017
05:00
L
22 °C 7 km 200 ft 170° 170° 7 kt METAR SBCG 170900Z 17007KT 7000 3000W BKN002 BKN006 BKN012 22/22 Q1017
04:00
M
21 °C 10 km+ 1.500 ft 170° 170° 3 kt METAR SBCG 170800Z 17003KT 9999 BKN015 BKN090 21/21 Q1016
03:00
V
22 °C 10 km+ - Var Var 1 kt METAR SBCG 170700Z VRB01KT 9999 FEW040 SCT100 22/22 Q1015
02:00
V
22 °C 10 km+ 9.000 ft 290° 290° 3 kt METAR SBCG 170600Z 29003KT 9999 FEW040 BKN090 22/22 Q1016
01:00
V
23 °C 10 km+ 9.000 ft 330° 330° 2 kt METAR SBCG 170500Z 33002KT 9999 FEW040 BKN090 23/22 Q1016
00:00
V
23 °C 10 km+ 9.000 ft 300° 300° 1 kt METAR SBCG 170400Z 30001KT 9999 FEW040 BKN090 23/22 Q1016

16 avril 2024

Temps Code Temps Temp. Vue Base cloud Vent METAR/SPECI
23:00
V
23 °C 10 km+ 9.000 ft 010° 010° 4 kt METAR SBCG 170300Z 01004KT 9999 FEW040 BKN090 23/22 Q1016
22:00
V
23 °C 10 km+ 9.000 ft 040° 040° 4 kt METAR SBCG 170200Z 04004KT 9999 FEW040 BKN090 23/22 Q1016
21:00
V
22 °C 10 km+ 10.000 ft 080° 080° 4 kt METAR SBCG 170100Z 08004KT 9999 FEW040 BKN100 22/22 Q1016
20:00
V
22 °C 10 km+ 10.000 ft 050° 050° 5 kt METAR SBCG 170000Z 05005KT 9999 SCT030 BKN100 22/22 Q1016
19:00
V
23 °C 10 km+ 10.000 ft 350° 350° 3 kt METAR SBCG 162300Z 35003KT 9999 SCT030 BKN100 23/23 Q1016
18:00
M
23 °C 10 km+ 2.500 ft 350° 350° 9 kt METAR SBCG 162200Z 35009KT 9999 VCSH BKN025 FEW040TCU BKN100 23/22 Q1014
17:00
M
23 °C 10 km+ 2.500 ft 010° 010° 8 kt METAR SBCG 162100Z 01008KT 9999 SCT015 BKN025 FEW040TCU BKN100 23/23 Q1014 RETS
16:00
M
24 °C 10 km+ 1.500 ft 350° 350° 7 kt METAR SBCG 162000Z 35007KT 9999 -TSRA FEW010 BKN015 FEW040CB BKN100 24/23 Q1015
15:35
M
24 °C 5 km 1.500 ft 010° 010° 6 kt METAR SBCG 161935Z 01006KT 5000 -TSRA SCT010 BKN015 FEW040CB BKN100 24/23 Q1015
15:00
I
23 °C 3 km 900 ft 220° 220° 11 kt METAR SBCG 161900Z 22011KT 3000 -TSRA BKN009 SCT015 FEW040CB 23/23 Q1016
14:00
V
25 °C 10 km+ 6.500 ft 030° 030° 6 kt METAR SBCG 161800Z 03006KT 9999 TS FEW005 FEW040CB BKN065 25/23 Q1015
13:00
V
24 °C 10 km+ 6.500 ft Var Var 2 kt METAR SBCG 161700Z VRB02KT 9999 TS VCSH FEW005 FEW040CB BKN065 24/23 Q1016
12:28
V
23 °C 10 km+ 6.000 ft 040° 040° 3 kt METAR SBCG 161628Z 04003KT 9999 TS FEW005 FEW040CB BKN060 23/23 Q1016 RERA
12:00
M
22 °C 5 km 3.500 ft 320° 320° 4 kt METAR SBCG 161600Z 32004KT 5000 TSRA BR SCT005 BKN035 FEW040CB BKN090 22/22 Q1016
11:00
L
23 °C 3 km 300 ft 270° 270° 9 kt METAR SBCG 161500Z 27009KT 240V310 3000 TSRA BR BKN003 SCT035 FEW040CB BKN070 23/23 Q1017
10:25
L
24 °C 1 km 4.000 ft Var Var 4 kt METAR SBCG 161425Z VRB04KT 1000 0400S R24/P2000D R06/P2000D +TSRA SCT004 BKN040 FEW045CB BKN080 24/24 Q1017 RERA
10:06
I
25 °C 3 km 4.000 ft 150° 150° 4 kt METAR SBCG 161406Z 15004KT 3000 TSRA FEW013 BKN040 FEW045CB BKN080 25/23 Q1017 RESHRA
10:00
V
25 °C 10 km+ 4.000 ft 160° 160° 4 kt METAR SBCG 161400Z 16004KT 9999 3000N SHRA FEW013 BKN040 FEW045TCU BKN080 25/23 Q1017
09:00
V
24 °C 10 km+ 4.000 ft Var Var 2 kt METAR SBCG 161300Z VRB02KT 9999 FEW013 BKN040 FEW045TCU BKN080 24/23 Q1016
08:40
V
24 °C 10 km+ 3.500 ft Var Var 2 kt METAR SBCG 161240Z VRB02KT 9999 -RA FEW013 BKN035 FEW045TCU BKN080 24/23 Q1016 RERA
08:30
I
24 °C 2,5 km 3.500 ft 310° 310° 3 kt METAR SBCG 161230Z 31003KT 280V020 2500 RA BR FEW013 BKN035 FEW045TCU BKN080 24/23 Q1016
08:01
I
24 °C 4,5 km 4.500 ft 030° 030° 5 kt METAR SBCG 161201Z 03005KT 4500 RA BR FEW013 BKN045 FEW050TCU BKN080 24/23 Q1016
08:00
M
24 °C 6 km 4.500 ft 050° 050° 5 kt METAR SBCG 161200Z 05005KT 6000 -RA FEW013 BKN045 FEW050TCU BKN080 24/23 Q1016 RERA
07:00
M
23 °C 10 km+ 2.000 ft 290° 290° 6 kt METAR SBCG 161100Z 29006KT 250V310 9999 VCSH VCTS SCT011 BKN020 FEW045CB BKN070 23/23 Q1016
06:00
V
23 °C 10 km+ 4.000 ft 010° 010° 5 kt METAR SBCG 161000Z 01005KT 9999 BKN040 FEW045TCU BKN070 23/22 Q1015
05:00
V
24 °C 10 km+ 10.000 ft 010° 010° 7 kt METAR SBCG 160900Z 01007KT 9999 -RA VCTS SCT030 FEW040CB BKN100 24/22 Q1014
04:00
V
23 °C 10 km+ 10.000 ft 360° 360° 4 kt METAR SBCG 160800Z 36004KT 9999 VCTS SCT030 FEW040CB BKN100 23/22 Q1014
03:00
V
24 °C 10 km+ 10.000 ft 020° 020° 9 kt METAR SBCG 160700Z 02009KT 9999 FEW005 SCT030 BKN100 24/22 Q1013
02:00
V
23 °C 9 km 10.000 ft 040° 040° 13 kt METAR SBCG 160600Z 04013KT 9000 -RA FEW005 SCT030 BKN100 23/22 Q1013
Signaler les modifications